sensor_id;sensor_type;location;lat;lon;timestamp;pressure;altitude;pressure_sealevel;temperature;humidity
54806;BME280;62866;55.776;37.496;2023-03-23T00:01:53;99610.50;;;5.96;63.90
54806;BME280;62866;55.776;37.496;2023-03-23T00:04:19;99604.88;;;5.91;64.20
54806;BME280;62866;55.776;37.496;2023-03-23T00:06:46;99605.69;;;5.92;63.82
54806;BME280;62866;55.776;37.496;2023-03-23T00:09:15;99602.38;;;5.90;64.28
54806;BME280;62866;55.776;37.496;2023-03-23T00:11:42;99594.69;;;5.87;64.29
54806;BME280;62866;55.776;37.496;2023-03-23T00:14:09;99591.91;;;5.88;64.40
54806;BME280;62866;55.776;37.496;2023-03-23T00:16:40;99602.53;;;5.96;63.96
54806;BME280;62866;55.776;37.496;2023-03-23T00:19:11;99576.81;;;5.89;64.01
54806;BME280;62866;55.776;37.496;2023-03-23T00:21:41;99580.81;;;5.93;63.88
54806;BME280;62866;55.776;37.496;2023-03-23T00:24:07;99581.47;;;5.95;64.27
54806;BME280;62866;55.776;37.496;2023-03-23T00:26:36;99564.88;;;5.85;64.11
54806;BME280;62866;55.776;37.496;2023-03-23T00:29:07;99580.16;;;5.99;63.87
54806;BME280;62866;55.776;37.496;2023-03-23T00:31:33;99571.19;;;5.92;64.28
54806;BME280;62866;55.776;37.496;2023-03-23T00:34:01;99558.38;;;5.87;64.14
54806;BME280;62866;55.776;37.496;2023-03-23T00:36:32;99576.16;;;5.95;64.30
54806;BME280;62866;55.776;37.496;2023-03-23T00:39:03;99574.53;;;5.94;64.53
54806;BME280;62866;55.776;37.496;2023-03-23T00:41:29;99581.16;;;5.98;64.20
54806;BME280;62866;55.776;37.496;2023-03-23T00:43:57;99568.88;;;5.97;64.28
54806;BME280;62866;55.776;37.496;2023-03-23T00:46:24;99575.69;;;5.99;64.26
54806;BME280;62866;55.776;37.496;2023-03-23T00:48:50;99567.06;;;6.05;64.02
54806;BME280;62866;55.776;37.496;2023-03-23T00:51:19;99564.41;;;6.05;64.13
54806;BME280;62866;55.776;37.496;2023-03-23T00:53:46;99555.59;;;5.97;64.31
54806;BME280;62866;55.776;37.496;2023-03-23T00:56:12;99565.75;;;6.01;64.50
54806;BME280;62866;55.776;37.496;2023-03-23T00:58:38;99567.88;;;5.98;64.49
54806;BME280;62866;55.776;37.496;2023-03-23T01:01:05;99571.69;;;5.95;64.62
54806;BME280;62866;55.776;37.496;2023-03-23T01:03:31;99551.97;;;5.90;64.49
54806;BME280;62866;55.776;37.496;2023-03-23T01:05:56;99557.25;;;5.90;64.60
54806;BME280;62866;55.776;37.496;2023-03-23T01:08:23;99556.72;;;5.86;64.98
54806;BME280;62866;55.776;37.496;2023-03-23T01:10:49;99558.72;;;5.84;65.45
54806;BME280;62866;55.776;37.496;2023-03-23T01:13:16;99556.72;;;5.78;65.50
54806;BME280;62866;55.776;37.496;2023-03-23T01:15:42;99542.94;;;5.66;65.47
54806;BME280;62866;55.776;37.496;2023-03-23T01:18:09;99554.56;;;5.73;65.11
54806;BME280;62866;55.776;37.496;2023-03-23T01:20:36;99543.94;;;5.65;65.92
54806;BME280;62866;55.776;37.496;2023-03-23T01:23:02;99550.25;;;5.72;65.72
54806;BME280;62866;55.776;37.496;2023-03-23T01:25:29;99555.41;;;5.82;65.42
54806;BME280;62866;55.776;37.496;2023-03-23T01:27:56;99545.78;;;5.81;65.65
54806;BME280;62866;55.776;37.496;2023-03-23T01:30:22;99550.25;;;5.81;65.53
54806;BME280;62866;55.776;37.496;2023-03-23T01:32:48;99539.47;;;5.74;65.73
54806;BME280;62866;55.776;37.496;2023-03-23T01:35:15;99533.84;;;5.77;65.63
54806;BME280;62866;55.776;37.496;2023-03-23T01:37:41;99535.84;;;5.83;65.80
54806;BME280;62866;55.776;37.496;2023-03-23T01:40:07;99538.00;;;5.88;65.64
54806;BME280;62866;55.776;37.496;2023-03-23T01:42:36;99531.84;;;5.79;65.96
54806;BME280;62866;55.776;37.496;2023-03-23T01:45:26;99502.00;;;5.69;65.46
54806;BME280;62866;55.776;37.496;2023-03-23T01:50:24;99528.34;;;5.79;65.50
54806;BME280;62866;55.776;37.496;2023-03-23T01:52:52;99499.16;;;5.62;66.14
54806;BME280;62866;55.776;37.496;2023-03-23T01:55:19;99523.25;;;5.77;65.42
54806;BME280;62866;55.776;37.496;2023-03-23T01:57:47;99520.25;;;5.80;65.70
54806;BME280;62866;55.776;37.496;2023-03-23T02:00:13;99522.22;;;5.78;66.10
54806;BME280;62866;55.776;37.496;2023-03-23T02:02:44;99525.53;;;5.80;65.93
54806;BME280;62866;55.776;37.496;2023-03-23T02:05:15;99518.72;;;5.78;66.02
54806;BME280;62866;55.776;37.496;2023-03-23T02:07:43;99519.41;;;5.71;65.92
54806;BME280;62866;55.776;37.496;2023-03-23T02:10:09;99524.53;;;5.73;66.40
54806;BME280;62866;55.776;37.496;2023-03-23T02:12:35;99524.69;;;5.71;66.14
54806;BME280;62866;55.776;37.496;2023-03-23T02:15:01;99525.88;;;5.69;66.13
54806;BME280;62866;55.776;37.496;2023-03-23T02:23:09;99510.75;;;5.53;66.86
54806;BME280;62866;55.776;37.496;2023-03-23T02:28:28;99506.13;;;5.55;66.65
54806;BME280;62866;55.776;37.496;2023-03-23T02:31:09;99502.63;;;5.47;66.84
54806;BME280;62866;55.776;37.496;2023-03-23T02:34:43;99493.34;;;5.34;66.81
54806;BME280;62866;55.776;37.496;2023-03-23T02:39:28;99508.03;;;5.29;67.24
54806;BME280;62866;55.776;37.496;2023-03-23T02:42:05;99504.56;;;5.28;67.73
54806;BME280;62866;55.776;37.496;2023-03-23T02:44:33;99507.72;;;5.32;67.01
54806;BME280;62866;55.776;37.496;2023-03-23T02:47:01;99500.75;;;5.23;66.99
54806;BME280;62866;55.776;37.496;2023-03-23T02:49:31;99495.44;;;5.23;67.26
54806;BME280;62866;55.776;37.496;2023-03-23T02:51:59;99495.75;;;5.20;67.76
54806;BME280;62866;55.776;37.496;2023-03-23T02:54:28;99508.69;;;5.23;67.55
54806;BME280;62866;55.776;37.496;2023-03-23T02:56:55;99501.06;;;5.20;67.28
54806;BME280;62866;55.776;37.496;2023-03-23T02:59:22;99497.06;;;5.08;67.69
54806;BME280;62866;55.776;37.496;2023-03-23T03:01:51;99497.91;;;5.08;68.05
54806;BME280;62866;55.776;37.496;2023-03-23T03:04:22;99507.38;;;5.19;68.27
54806;BME280;62866;55.776;37.496;2023-03-23T03:07:26;99501.56;;;5.23;67.70
54806;BME280;62866;55.776;37.496;2023-03-23T03:17:29;99491.28;;;5.20;68.08
54806;BME280;62866;55.776;37.496;2023-03-23T03:20:02;99484.31;;;5.11;67.91
54806;BME280;62866;55.776;37.496;2023-03-23T03:22:36;99493.09;;;5.12;68.42
54806;BME280;62866;55.776;37.496;2023-03-23T03:25:04;99493.06;;;5.04;68.66
54806;BME280;62866;55.776;37.496;2023-03-23T03:27:31;99490.72;;;4.92;68.78
54806;BME280;62866;55.776;37.496;2023-03-23T03:29:59;99485.53;;;4.83;69.00
54806;BME280;62866;55.776;37.496;2023-03-23T03:32:34;99488.16;;;4.75;69.34
54806;BME280;62866;55.776;37.496;2023-03-23T03:35:04;99477.00;;;4.63;69.47
54806;BME280;62866;55.776;37.496;2023-03-23T03:37:35;99483.44;;;4.61;69.87
54806;BME280;62866;55.776;37.496;2023-03-23T03:40:17;99490.56;;;4.60;69.88
54806;BME280;62866;55.776;37.496;2023-03-23T03:42:44;99477.25;;;4.52;70.47
54806;BME280;62866;55.776;37.496;2023-03-23T03:45:14;99492.84;;;4.55;70.53
54806;BME280;62866;55.776;37.496;2023-03-23T03:47:40;99464.81;;;4.44;70.28
54806;BME280;62866;55.776;37.496;2023-03-23T03:50:06;99479.09;;;4.51;70.61
54806;BME280;62866;55.776;37.496;2023-03-23T03:52:35;99482.25;;;4.55;70.17
54806;BME280;62866;55.776;37.496;2023-03-23T03:55:01;99467.69;;;4.51;70.93
54806;BME280;62866;55.776;37.496;2023-03-23T03:57:27;99480.78;;;4.61;70.53
54806;BME280;62866;55.776;37.496;2023-03-23T03:59:53;99483.44;;;4.61;71.01
54806;BME280;62866;55.776;37.496;2023-03-23T04:02:19;99477.34;;;4.60;70.72
54806;BME280;62866;55.776;37.496;2023-03-23T04:04:47;99477.69;;;4.65;71.27
54806;BME280;62866;55.776;37.496;2023-03-23T04:07:13;99479.81;;;4.62;70.87
54806;BME280;62866;55.776;37.496;2023-03-23T04:09:40;99479.19;;;4.68;71.01
54806;BME280;62866;55.776;37.496;2023-03-23T04:12:06;99480.03;;;4.68;71.34
54806;BME280;62866;55.776;37.496;2023-03-23T04:14:32;99470.22;;;4.69;70.98
54806;BME280;62866;55.776;37.496;2023-03-23T04:16:57;99469.59;;;4.67;71.81
54806;BME280;62866;55.776;37.496;2023-03-23T04:19:24;99466.28;;;4.73;71.02
54806;BME280;62866;55.776;37.496;2023-03-23T04:21:50;99477.56;;;4.75;71.15
54806;BME280;62866;55.776;37.496;2023-03-23T04:24:15;99469.63;;;4.75;71.16
54806;BME280;62866;55.776;37.496;2023-03-23T04:26:41;99472.59;;;4.80;70.80
54806;BME280;62866;55.776;37.496;2023-03-23T04:29:10;99470.78;;;4.80;71.47
54806;BME280;62866;55.776;37.496;2023-03-23T04:31:38;99468.13;;;4.80;71.78
54806;BME280;62866;55.776;37.496;2023-03-23T04:34:04;99466.84;;;4.84;71.73
54806;BME280;62866;55.776;37.496;2023-03-23T04:36:30;99463.03;;;4.87;71.47
54806;BME280;62866;55.776;37.496;2023-03-23T04:38:59;99456.25;;;4.84;71.65
54806;BME280;62866;55.776;37.496;2023-03-23T04:41:26;99469.84;;;4.89;71.84
54806;BME280;62866;55.776;37.496;2023-03-23T04:43:52;99476.78;;;4.90;72.28
54806;BME280;62866;55.776;37.496;2023-03-23T04:46:19;99469.19;;;4.95;71.54
54806;BME280;62866;55.776;37.496;2023-03-23T04:48:46;99477.13;;;4.95;71.49
54806;BME280;62866;55.776;37.496;2023-03-23T04:51:12;99477.66;;;4.99;71.40
54806;BME280;62866;55.776;37.496;2023-03-23T04:53:38;99470.53;;;5.00;71.80
54806;BME280;62866;55.776;37.496;2023-03-23T04:56:03;99472.53;;;5.06;71.53
54806;BME280;62866;55.776;37.496;2023-03-23T04:58:29;99473.06;;;5.09;71.75
54806;BME280;62866;55.776;37.496;2023-03-23T05:01:02;99474.38;;;5.13;71.48
54806;BME280;62866;55.776;37.496;2023-03-23T05:03:27;99464.59;;;5.14;71.23
54806;BME280;62866;55.776;37.496;2023-03-23T05:05:53;99470.91;;;5.21;72.08
54806;BME280;62866;55.776;37.496;2023-03-23T05:08:20;99474.91;;;5.25;71.53
54806;BME280;62866;55.776;37.496;2023-03-23T05:10:57;99473.28;;;5.32;71.82
54806;BME280;62866;55.776;37.496;2023-03-23T05:13:23;99481.56;;;5.37;71.16
54806;BME280;62866;55.776;37.496;2023-03-23T05:15:49;99484.03;;;5.39;71.26
54806;BME280;62866;55.776;37.496;2023-03-23T05:18:15;99480.56;;;5.46;71.31
54806;BME280;62866;55.776;37.496;2023-03-23T05:20:41;99487.25;;;5.58;71.73
54806;BME280;62866;55.776;37.496;2023-03-23T05:23:08;99477.47;;;5.59;70.72
54806;BME280;62866;55.776;37.496;2023-03-23T05:25:34;99482.41;;;5.70;71.19
54806;BME280;62866;55.776;37.496;2023-03-23T05:28:03;99480.44;;;5.72;71.00
54806;BME280;62866;55.776;37.496;2023-03-23T05:30:28;99475.13;;;5.80;70.73
54806;BME280;62866;55.776;37.496;2023-03-23T05:32:55;99475.50;;;5.85;70.95
54806;BME280;62866;55.776;37.496;2023-03-23T05:35:20;99468.72;;;5.91;70.96
54806;BME280;62866;55.776;37.496;2023-03-23T05:37:46;99469.84;;;5.96;70.71
54806;BME280;62866;55.776;37.496;2023-03-23T05:40:12;99478.16;;;6.18;70.68
54806;BME280;62866;55.776;37.496;2023-03-23T05:42:39;99465.28;;;8.52;66.29
54806;BME280;62866;55.776;37.496;2023-03-23T05:45:09;99465.88;;;11.90;57.42
54806;BME280;62866;55.776;37.496;2023-03-23T05:47:37;99459.31;;;14.35;52.32
54806;BME280;62866;55.776;37.496;2023-03-23T05:50:02;99453.94;;;15.63;49.37
54806;BME280;62866;55.776;37.496;2023-03-23T05:52:28;99455.47;;;16.59;48.81
54806;BME280;62866;55.776;37.496;2023-03-23T05:54:54;99464.31;;;17.69;46.33
54806;BME280;62866;55.776;37.496;2023-03-23T05:57:20;99463.50;;;18.86;44.13
54806;BME280;62866;55.776;37.496;2023-03-23T05:59:48;99463.94;;;19.65;42.52
54806;BME280;62866;55.776;37.496;2023-03-23T06:02:14;99454.41;;;20.21;40.66
54806;BME280;62866;55.776;37.496;2023-03-23T06:04:40;99461.53;;;19.95;40.19
54806;BME280;62866;55.776;37.496;2023-03-23T06:07:07;99455.81;;;19.65;40.73
54806;BME280;62866;55.776;37.496;2023-03-23T06:09:33;99451.84;;;20.36;39.67
54806;BME280;62866;55.776;37.496;2023-03-23T06:11:58;99456.34;;;20.26;38.34
54806;BME280;62866;55.776;37.496;2023-03-23T06:14:24;99444.75;;;18.63;40.42
54806;BME280;62866;55.776;37.496;2023-03-23T06:16:49;99454.19;;;17.36;42.45
54806;BME280;62866;55.776;37.496;2023-03-23T06:19:15;99448.47;;;16.23;43.82
54806;BME280;62866;55.776;37.496;2023-03-23T06:21:42;99444.25;;;16.39;43.78
54806;BME280;62866;55.776;37.496;2023-03-23T06:24:09;99451.97;;;16.35;44.04
54806;BME280;62866;55.776;37.496;2023-03-23T06:26:37;99437.44;;;16.36;43.55
54806;BME280;62866;55.776;37.496;2023-03-23T06:29:05;99448.81;;;16.85;42.54
54806;BME280;62866;55.776;37.496;2023-03-23T06:31:43;99447.06;;;16.67;42.38
54806;BME280;62866;55.776;37.496;2023-03-23T06:34:10;99439.56;;;15.51;44.39
54806;BME280;62866;55.776;37.496;2023-03-23T06:36:37;99454.41;;;14.94;45.87
54806;BME280;62866;55.776;37.496;2023-03-23T06:39:04;99445.66;;;15.76;44.80
54806;BME280;62866;55.776;37.496;2023-03-23T06:41:33;99444.34;;;17.87;41.04
54806;BME280;62866;55.776;37.496;2023-03-23T06:43:59;99435.38;;;18.70;39.47
54806;BME280;62866;55.776;37.496;2023-03-23T06:46:26;99437.84;;;19.37;38.79
54806;BME280;62866;55.776;37.496;2023-03-23T06:48:52;99440.25;;;18.90;38.33
54806;BME280;62866;55.776;37.496;2023-03-23T06:51:18;99442.63;;;17.81;40.12
54806;BME280;62866;55.776;37.496;2023-03-23T06:53:44;99444.06;;;17.03;41.94
54806;BME280;62866;55.776;37.496;2023-03-23T06:56:10;99435.97;;;16.92;42.61
54806;BME280;62866;55.776;37.496;2023-03-23T06:58:37;99429.97;;;18.53;40.18
54806;BME280;62866;55.776;37.496;2023-03-23T07:01:03;99435.72;;;20.25;36.85
54806;BME280;62866;55.776;37.496;2023-03-23T07:03:29;99431.72;;;21.32;34.86
54806;BME280;62866;55.776;37.496;2023-03-23T07:05:56;99417.41;;;21.67;33.99
54806;BME280;62866;55.776;37.496;2023-03-23T07:08:24;99439.19;;;21.82;34.13
54806;BME280;62866;55.776;37.496;2023-03-23T07:10:52;99427.19;;;21.73;33.55
54806;BME280;62866;55.776;37.496;2023-03-23T07:13:18;99433.19;;;21.65;34.17
54806;BME280;62866;55.776;37.496;2023-03-23T07:15:44;99431.28;;;21.80;34.43
54806;BME280;62866;55.776;37.496;2023-03-23T07:18:09;99420.63;;;21.48;34.48
54806;BME280;62866;55.776;37.496;2023-03-23T07:20:35;99421.53;;;22.20;33.43
54806;BME280;62866;55.776;37.496;2023-03-23T07:23:02;99424.81;;;22.07;33.64
54806;BME280;62866;55.776;37.496;2023-03-23T07:25:31;99411.13;;;22.67;32.53
54806;BME280;62866;55.776;37.496;2023-03-23T07:27:58;99411.53;;;23.64;31.02
54806;BME280;62866;55.776;37.496;2023-03-23T07:30:25;99419.06;;;24.11;30.18
54806;BME280;62866;55.776;37.496;2023-03-23T07:32:51;99413.31;;;23.84;30.49
54806;BME280;62866;55.776;37.496;2023-03-23T07:35:17;99426.16;;;23.29;31.37
54806;BME280;62866;55.776;37.496;2023-03-23T07:37:42;99404.41;;;23.68;30.27
54806;BME280;62866;55.776;37.496;2023-03-23T07:40:08;99397.69;;;22.91;31.14
54806;BME280;62866;55.776;37.496;2023-03-23T07:42:44;99420.13;;;22.53;31.94
54806;BME280;62866;55.776;37.496;2023-03-23T07:45:13;99409.19;;;22.78;31.42
54806;BME280;62866;55.776;37.496;2023-03-23T07:47:39;99399.72;;;23.25;30.84
54806;BME280;62866;55.776;37.496;2023-03-23T07:50:06;99394.50;;;23.33;30.62
54806;BME280;62866;55.776;37.496;2023-03-23T07:52:33;99388.88;;;23.64;30.34
54806;BME280;62866;55.776;37.496;2023-03-23T07:54:59;99383.31;;;23.35;30.27
54806;BME280;62866;55.776;37.496;2023-03-23T07:57:27;99374.75;;;23.46;30.04
54806;BME280;62866;55.776;37.496;2023-03-23T07:59:53;99382.53;;;24.07;29.97
54806;BME280;62866;55.776;37.496;2023-03-23T08:02:19;99376.31;;;24.60;28.72
54806;BME280;62866;55.776;37.496;2023-03-23T08:04:44;99372.63;;;24.69;28.29
54806;BME280;62866;55.776;37.496;2023-03-23T08:07:11;99389.50;;;24.76;28.23
54806;BME280;62866;55.776;37.496;2023-03-23T08:09:38;99382.00;;;25.29;27.74
54806;BME280;62866;55.776;37.496;2023-03-23T08:12:04;99381.25;;;25.80;27.48
54806;BME280;62866;55.776;37.496;2023-03-23T08:14:30;99364.69;;;25.72;27.26
54806;BME280;62866;55.776;37.496;2023-03-23T08:16:56;99388.19;;;25.59;27.38
54806;BME280;62866;55.776;37.496;2023-03-23T08:19:22;99383.28;;;25.75;26.85
54806;BME280;62866;55.776;37.496;2023-03-23T08:21:48;99385.47;;;25.16;27.86
54806;BME280;62866;55.776;37.496;2023-03-23T08:24:15;99386.69;;;25.05;28.15
54806;BME280;62866;55.776;37.496;2023-03-23T08:26:41;99381.03;;;25.39;27.53
54806;BME280;62866;55.776;37.496;2023-03-23T08:29:07;99357.06;;;25.31;27.15
54806;BME280;62866;55.776;37.496;2023-03-23T08:31:34;99360.91;;;24.87;27.93
54806;BME280;62866;55.776;37.496;2023-03-23T08:34:01;99361.03;;;24.77;27.64
54806;BME280;62866;55.776;37.496;2023-03-23T08:36:27;99352.22;;;24.85;27.67
54806;BME280;62866;55.776;37.496;2023-03-23T08:38:53;99345.00;;;24.47;28.17
54806;BME280;62866;55.776;37.496;2023-03-23T08:41:19;99335.97;;;23.60;28.63
54806;BME280;62866;55.776;37.496;2023-03-23T08:43:45;99339.13;;;22.74;29.73
54806;BME280;62866;55.776;37.496;2023-03-23T08:46:11;99336.31;;;22.14;30.69
54806;BME280;62866;55.776;37.496;2023-03-23T08:48:37;99315.09;;;22.86;30.02
54806;BME280;62866;55.776;37.496;2023-03-23T08:51:05;99335.63;;;23.66;29.37
54806;BME280;62866;55.776;37.496;2023-03-23T08:53:31;99326.75;;;23.85;28.99
54806;BME280;62866;55.776;37.496;2023-03-23T08:56:11;99326.78;;;23.79;29.12
54806;BME280;62866;55.776;37.496;2023-03-23T08:58:38;99309.25;;;23.86;28.95
54806;BME280;62866;55.776;37.496;2023-03-23T09:01:05;99296.97;;;24.12;28.54
54806;BME280;62866;55.776;37.496;2023-03-23T09:03:32;99299.19;;;23.47;29.03
54806;BME280;62866;55.776;37.496;2023-03-23T09:06:00;99298.69;;;22.96;29.77
54806;BME280;62866;55.776;37.496;2023-03-23T09:08:27;99311.97;;;23.13;29.60
54806;BME280;62866;55.776;37.496;2023-03-23T09:10:58;99299.97;;;22.54;30.14
54806;BME280;62866;55.776;37.496;2023-03-23T09:13:23;99292.22;;;22.07;30.43
54806;BME280;62866;55.776;37.496;2023-03-23T09:15:49;99297.66;;;21.62;31.04
54806;BME280;62866;55.776;37.496;2023-03-23T09:18:15;99302.78;;;21.17;31.18
54806;BME280;62866;55.776;37.496;2023-03-23T09:20:42;99284.41;;;20.57;31.74
54806;BME280;62866;55.776;37.496;2023-03-23T09:23:09;99292.75;;;20.40;32.27
54806;BME280;62866;55.776;37.496;2023-03-23T09:25:35;99285.44;;;19.30;33.20
54806;BME280;62866;55.776;37.496;2023-03-23T09:28:00;99277.97;;;17.85;35.26
54806;BME280;62866;55.776;37.496;2023-03-23T09:30:31;99289.34;;;16.91;36.73
54806;BME280;62866;55.776;37.496;2023-03-23T09:33:00;99276.56;;;16.07;38.29
54806;BME280;62866;55.776;37.496;2023-03-23T09:35:27;99260.56;;;15.35;39.27
54806;BME280;62866;55.776;37.496;2023-03-23T09:37:53;99265.78;;;14.77;40.53
54806;BME280;62866;55.776;37.496;2023-03-23T09:40:20;99268.75;;;14.57;40.84
54806;BME280;62866;55.776;37.496;2023-03-23T09:43:04;99239.28;;;14.14;41.21
54806;BME280;62866;55.776;37.496;2023-03-23T09:45:47;99239.31;;;14.07;41.50
54806;BME280;62866;55.776;37.496;2023-03-23T09:53:45;99241.97;;;13.96;42.32
54806;BME280;62866;55.776;37.496;2023-03-23T09:56:13;99242.00;;;13.89;42.66
54806;BME280;62866;55.776;37.496;2023-03-23T09:59:07;99241.13;;;13.95;41.78
54806;BME280;62866;55.776;37.496;2023-03-23T10:01:42;99233.81;;;13.84;42.34
54806;BME280;62866;55.776;37.496;2023-03-23T10:09:40;99210.34;;;13.55;43.46
54806;BME280;62866;55.776;37.496;2023-03-23T10:12:21;99232.81;;;13.60;43.53
54806;BME280;62866;55.776;37.496;2023-03-23T10:15:23;99230.91;;;13.43;43.82
54806;BME280;62866;55.776;37.496;2023-03-23T10:17:56;99229.88;;;13.44;44.28
54806;BME280;62866;55.776;37.496;2023-03-23T10:20:36;99228.00;;;13.44;44.20
54806;BME280;62866;55.776;37.496;2023-03-23T10:28:23;99211.00;;;13.50;43.97
54806;BME280;62866;55.776;37.496;2023-03-23T10:30:55;99214.63;;;13.62;44.32
54806;BME280;62866;55.776;37.496;2023-03-23T10:33:41;99216.47;;;13.62;43.90
54806;BME280;62866;55.776;37.496;2023-03-23T10:38:49;99210.41;;;13.66;43.60
54806;BME280;62866;55.776;37.496;2023-03-23T10:41:19;99184.06;;;13.57;43.88
54806;BME280;62866;55.776;37.496;2023-03-23T10:43:46;99209.31;;;13.74;43.59
54806;BME280;62866;55.776;37.496;2023-03-23T10:46:27;99219.22;;;13.74;43.85
54806;BME280;62866;55.776;37.496;2023-03-23T10:48:56;99200.34;;;13.62;43.67
54806;BME280;62866;55.776;37.496;2023-03-23T10:51:33;99220.97;;;13.86;43.71
54806;BME280;62866;55.776;37.496;2023-03-23T10:54:01;99215.44;;;13.99;43.22
54806;BME280;62866;55.776;37.496;2023-03-23T10:56:34;99209.47;;;13.97;43.42
54806;BME280;62866;55.776;37.496;2023-03-23T10:59:29;99213.47;;;14.06;43.21
54806;BME280;62866;55.776;37.496;2023-03-23T11:01:56;99207.06;;;14.26;42.38
54806;BME280;62866;55.776;37.496;2023-03-23T11:04:23;99215.13;;;14.26;42.68
54806;BME280;62866;55.776;37.496;2023-03-23T11:06:52;99205.56;;;14.30;43.06
54806;BME280;62866;55.776;37.496;2023-03-23T11:09:20;99209.63;;;14.39;42.65
54806;BME280;62866;55.776;37.496;2023-03-23T11:11:52;99198.63;;;14.22;42.92
54806;BME280;62866;55.776;37.496;2023-03-23T11:14:25;99215.72;;;14.28;43.51
54806;BME280;62866;55.776;37.496;2023-03-23T11:16:59;99210.19;;;14.41;42.81
54806;BME280;62866;55.776;37.496;2023-03-23T11:19:33;99204.75;;;14.48;42.51
54806;BME280;62866;55.776;37.496;2023-03-23T11:24:34;99209.06;;;14.78;42.13
54806;BME280;62866;55.776;37.496;2023-03-23T11:27:01;99195.38;;;14.92;41.50
54806;BME280;62866;55.776;37.496;2023-03-23T11:29:32;99195.88;;;14.89;41.60
54806;BME280;62866;55.776;37.496;2023-03-23T11:34:30;99211.59;;;14.73;42.20
54806;BME280;62866;55.776;37.496;2023-03-23T11:37:03;99207.03;;;14.74;42.08
54806;BME280;62866;55.776;37.496;2023-03-23T11:39:48;99209.09;;;14.60;42.36
54806;BME280;62866;55.776;37.496;2023-03-23T11:42:23;99213.44;;;14.61;42.33
54806;BME280;62866;55.776;37.496;2023-03-23T11:44:53;99215.38;;;14.72;42.38
54806;BME280;62866;55.776;37.496;2023-03-23T11:47:47;99205.03;;;14.69;42.44
54806;BME280;62866;55.776;37.496;2023-03-23T11:50:18;99191.19;;;14.54;42.55
54806;BME280;62866;55.776;37.496;2023-03-23T11:52:52;99202.31;;;14.58;42.62
54806;BME280;62866;55.776;37.496;2023-03-23T11:55:28;99201.28;;;14.40;43.13
54806;BME280;62866;55.776;37.496;2023-03-23T11:57:56;99213.44;;;14.61;42.71
54806;BME280;62866;55.776;37.496;2023-03-23T12:00:25;99200.72;;;14.68;42.69
54806;BME280;62866;55.776;37.496;2023-03-23T12:03:11;99198.44;;;14.95;42.56
54806;BME280;62866;55.776;37.496;2023-03-23T12:13:26;99199.53;;;15.06;42.57
54806;BME280;62866;55.776;37.496;2023-03-23T12:35:44;99178.63;;;14.18;44.12
54806;BME280;62866;55.776;37.496;2023-03-23T12:38:36;99171.47;;;14.12;44.37
54806;BME280;62866;55.776;37.496;2023-03-23T12:41:33;99182.13;;;14.19;44.22
54806;BME280;62866;55.776;37.496;2023-03-23T12:44:06;99176.44;;;14.27;44.37
54806;BME280;62866;55.776;37.496;2023-03-23T12:52:22;99169.84;;;14.41;44.23
54806;BME280;62866;55.776;37.496;2023-03-23T12:55:17;99163.91;;;14.21;44.40
54806;BME280;62866;55.776;37.496;2023-03-23T12:57:54;99159.88;;;14.12;44.65
54806;BME280;62866;55.776;37.496;2023-03-23T13:00:31;99158.69;;;14.07;44.60
54806;BME280;62866;55.776;37.496;2023-03-23T13:03:07;99160.03;;;13.98;44.85
54806;BME280;62866;55.776;37.496;2023-03-23T13:05:43;99145.63;;;13.93;45.00
54806;BME280;62866;55.776;37.496;2023-03-23T13:08:12;99157.22;;;13.93;44.57
54806;BME280;62866;55.776;37.496;2023-03-23T13:10:45;99139.09;;;13.71;45.23
54806;BME280;62866;55.776;37.496;2023-03-23T13:13:22;99152.44;;;13.77;45.41
54806;BME280;62866;55.776;37.496;2023-03-23T13:18:42;99158.88;;;13.76;45.47
54806;BME280;62866;55.776;37.496;2023-03-23T13:23:46;99150.34;;;13.43;46.45
54806;BME280;62866;55.776;37.496;2023-03-23T13:26:20;99139.69;;;13.36;46.25
54806;BME280;62866;55.776;37.496;2023-03-23T13:29:01;99138.44;;;13.39;46.50
54806;BME280;62866;55.776;37.496;2023-03-23T13:31:36;99147.28;;;13.39;46.19
54806;BME280;62866;55.776;37.496;2023-03-23T13:38:57;99129.16;;;13.10;47.28
54806;BME280;62866;55.776;37.496;2023-03-23T13:41:24;99145.16;;;12.98;47.33
54806;BME280;62866;55.776;37.496;2023-03-23T13:43:51;99132.69;;;12.85;47.24
54806;BME280;62866;55.776;37.496;2023-03-23T13:48:46;99137.97;;;12.92;47.55
54806;BME280;62866;55.776;37.496;2023-03-23T13:56:57;99127.66;;;12.96;47.59
54806;BME280;62866;55.776;37.496;2023-03-23T14:01:56;99118.81;;;12.64;48.23
54806;BME280;62866;55.776;37.496;2023-03-23T14:04:30;99121.03;;;12.42;49.01
54806;BME280;62866;55.776;37.496;2023-03-23T14:07:09;99120.56;;;12.20;49.20
54806;BME280;62866;55.776;37.496;2023-03-23T14:09:41;99117.47;;;12.16;49.77
54806;BME280;62866;55.776;37.496;2023-03-23T14:12:28;99120.84;;;12.05;49.63
54806;BME280;62866;55.776;37.496;2023-03-23T14:15:01;99106.84;;;12.03;49.54
54806;BME280;62866;55.776;37.496;2023-03-23T14:17:31;99099.03;;;12.02;50.25
54806;BME280;62866;55.776;37.496;2023-03-23T14:19:59;99100.47;;;11.98;50.12
54806;BME280;62866;55.776;37.496;2023-03-23T14:22:28;99088.72;;;11.99;50.15
54806;BME280;62866;55.776;37.496;2023-03-23T14:25:17;99100.31;;;11.93;49.97
54806;BME280;62866;55.776;37.496;2023-03-23T14:27:44;99073.00;;;11.71;50.61
54806;BME280;62866;55.776;37.496;2023-03-23T14:30:15;99110.66;;;11.83;50.97
54806;BME280;62866;55.776;37.496;2023-03-23T14:32:41;99113.31;;;11.83;50.88
54806;BME280;62866;55.776;37.496;2023-03-23T14:35:34;99108.00;;;11.69;50.99
54806;BME280;62866;55.776;37.496;2023-03-23T14:38:01;99106.59;;;11.60;51.75
54806;BME280;62866;55.776;37.496;2023-03-23T14:40:28;99095.28;;;11.58;51.90
54806;BME280;62866;55.776;37.496;2023-03-23T14:42:55;99093.84;;;11.56;51.86
54806;BME280;62866;55.776;37.496;2023-03-23T14:45:23;99093.44;;;11.52;52.18
54806;BME280;62866;55.776;37.496;2023-03-23T14:47:52;99091.16;;;11.62;51.76